createdAt,value
2018-04-28T10:58:44.796Z,45.38
2018-04-28T11:01:14.296Z,46.31
2018-04-28T11:03:43.608Z,45.71
2018-04-28T11:06:14.554Z,44.19
2018-04-28T11:08:44.204Z,44.73
2018-04-28T11:11:13.362Z,44.66
2018-04-28T11:13:42.783Z,44.46
2018-04-28T11:16:12.370Z,43.70
2018-04-28T11:18:43.396Z,44.29
2018-04-28T11:21:13.141Z,43.40
2018-04-28T11:23:40.654Z,41.98
2018-04-28T11:26:09.798Z,43.89
2018-04-28T11:28:39.462Z,43.22
2018-04-28T11:31:09.472Z,42.99
2018-04-28T11:33:40.069Z,43.31
2018-04-28T11:36:08.170Z,42.99
2018-04-28T11:38:38.331Z,43.40
2018-04-28T11:41:07.558Z,43.74
2018-04-28T11:43:37.568Z,42.47
2018-04-28T11:46:06.931Z,43.85
2018-04-28T11:48:36.509Z,42.60
2018-04-28T11:51:05.860Z,42.66
2018-04-28T11:53:34.803Z,41.57
2018-04-28T11:56:05.005Z,42.17
2018-04-28T11:58:34.707Z,42.21
2018-04-28T12:01:05.180Z,42.39
2018-04-28T12:15:29.959Z,40.60
2018-04-28T12:17:57.434Z,41.00
2018-04-28T12:20:24.948Z,42.31
2018-04-28T12:22:54.317Z,42.34
2018-04-28T12:25:23.740Z,41.47
2018-04-28T12:27:53.350Z,42.34
2018-04-28T12:30:24.900Z,41.78
2018-04-28T12:32:54.307Z,40.02
2018-04-28T12:35:23.774Z,39.60
2018-04-28T12:37:53.910Z,39.06
2018-04-28T12:40:23.519Z,36.96
2018-04-28T12:42:53.749Z,36.06
2018-04-28T12:45:23.954Z,34.46
2018-04-28T12:47:55.874Z,33.69
2018-04-28T12:50:25.491Z,32.02
2018-04-28T12:52:59.854Z,29.84
2018-04-28T12:55:38.114Z,30.39
2018-04-28T12:58:09.161Z,29.63
2018-04-28T13:00:36.992Z,27.64
2018-04-28T13:03:06.469Z,26.72
2018-04-28T13:05:37.697Z,26.34
2018-04-28T13:08:08.921Z,27.17
2018-04-28T13:10:38.396Z,27.04
2018-04-28T13:13:08.304Z,25.96
2018-04-28T13:15:37.557Z,25.22
2018-04-28T13:18:10.248Z,25.35
2018-04-28T13:20:39.702Z,25.27
2018-04-28T13:23:13.723Z,24.60
2018-04-28T13:25:44.018Z,25.29
2018-04-28T13:28:14.044Z,25.30
2018-04-28T13:30:43.212Z,24.99
2018-04-28T13:33:12.790Z,25.70
2018-04-28T13:35:41.896Z,26.24
2018-04-28T13:38:12.378Z,25.46
2018-04-28T13:40:41.343Z,25.72
2018-04-28T13:43:10.100Z,26.97
2018-04-28T13:45:39.281Z,27.53
2018-04-28T13:48:08.575Z,29.68
2018-04-28T13:50:38.308Z,29.33
2018-04-28T13:53:05.881Z,29.71
2018-04-28T13:55:35.961Z,29.63
2018-04-28T13:58:05.068Z,28.26
2018-04-28T14:00:34.107Z,27.95
2018-04-28T14:03:03.429Z,28.88
2018-04-28T14:05:31.001Z,28.90
2018-04-28T14:08:00.166Z,28.32
2018-04-28T14:10:29.846Z,28.58
2018-04-28T14:12:59.142Z,28.47
2018-04-28T14:15:28.615Z,28.65
2018-04-28T14:17:58.256Z,29.11
2018-04-28T14:20:30.634Z,28.53
2018-04-28T14:23:00.224Z,29.91
2018-04-28T14:25:30.260Z,30.38
2018-04-28T14:28:03.936Z,29.32
2018-04-28T14:30:33.413Z,30.23
2018-04-28T14:33:03.264Z,31.63
2018-04-28T14:35:31.265Z,31.48
2018-04-28T14:38:00.804Z,30.31
2018-04-28T14:40:31.181Z,30.75
2018-04-28T14:43:04.332Z,30.57
2018-04-28T14:45:33.661Z,30.62
2018-04-28T14:48:02.803Z,31.06
2018-04-28T14:50:32.978Z,31.48
2018-04-28T14:53:03.326Z,31.20
2018-04-28T14:55:32.695Z,31.71
2018-04-28T14:58:02.145Z,31.91
2018-04-28T15:00:31.931Z,32.42
2018-04-28T15:03:01.518Z,31.89
2018-04-28T15:05:30.697Z,31.82
2018-04-28T15:08:00.845Z,31.64
2018-04-28T15:10:32.104Z,32.32
2018-04-28T15:13:01.657Z,32.58
2018-04-28T15:15:31.095Z,32.91
2018-04-28T15:17:59.992Z,32.96
2018-04-28T15:20:28.697Z,34.42
2018-04-28T15:22:58.122Z,34.73
2018-04-28T15:25:27.510Z,34.19
2018-04-28T15:27:56.679Z,34.48
2018-04-28T15:30:26.338Z,33.85
2018-04-28T15:32:55.603Z,33.80
2018-04-28T15:35:26.677Z,34.94
2018-04-28T15:37:55.936Z,35.02
2018-04-28T15:40:25.390Z,34.79
2018-04-28T15:42:54.543Z,35.50
2018-04-28T15:45:23.836Z,36.19
2018-04-28T15:47:53.179Z,36.20
2018-04-28T15:50:20.765Z,35.96
2018-04-28T15:52:50.065Z,36.71
2018-04-28T15:55:21.645Z,37.31
2018-04-28T15:57:51.472Z,37.35
2018-04-28T16:00:21.577Z,37.50
2018-04-28T16:02:51.327Z,37.84
2018-04-28T16:05:20.529Z,38.70
2018-04-28T16:07:49.794Z,38.39
2018-04-28T16:10:19.408Z,38.71
2018-04-28T16:12:49.083Z,39.08
2018-04-28T16:15:18.509Z,39.25
2018-04-28T16:17:52.171Z,38.89
2018-04-28T16:20:20.388Z,39.97
2018-04-28T16:22:54.169Z,39.96
2018-04-28T16:25:22.818Z,39.80
2018-04-28T16:27:53.320Z,40.28
2018-04-28T16:30:22.783Z,40.81
2018-04-28T16:32:51.457Z,41.13
2018-04-28T16:35:20.586Z,41.22
2018-04-28T16:37:49.767Z,41.70
2018-04-28T16:40:19.569Z,41.58
2018-04-28T16:42:50.563Z,42.03
2018-04-28T16:45:19.737Z,41.77
2018-04-28T16:47:49.300Z,42.03
2018-04-28T16:50:18.549Z,41.34
2018-04-28T16:52:48.228Z,42.16
2018-04-28T16:55:17.418Z,41.88
2018-04-28T16:57:47.122Z,42.26
2018-04-28T17:00:16.399Z,42.64
2018-04-28T17:02:45.903Z,42.64
2018-04-28T17:05:15.167Z,42.68
2018-04-28T17:07:44.413Z,42.69
2018-04-28T17:10:13.958Z,43.11
2018-04-28T17:12:41.923Z,43.52
2018-04-28T17:15:11.534Z,43.59
2018-04-28T17:17:52.392Z,43.58
2018-04-28T17:20:22.110Z,43.76
2018-04-28T17:22:52.472Z,43.68
2018-04-28T17:25:22.950Z,43.88
2018-04-28T17:27:52.295Z,43.75
2018-04-28T17:30:21.744Z,44.10
2018-04-28T17:32:50.991Z,43.97
2018-04-28T17:35:22.016Z,43.96
2018-04-28T17:37:51.336Z,43.96
2018-04-28T17:40:20.669Z,44.06
2018-04-28T17:42:49.013Z,44.21
2018-04-28T17:45:18.451Z,44.36
2018-04-28T17:47:48.109Z,44.45
2018-04-28T17:50:18.221Z,44.52
2018-04-28T17:52:47.987Z,44.56
2018-04-28T17:55:17.456Z,44.65
2018-04-28T17:57:46.885Z,44.37
2018-04-28T18:00:14.384Z,44.43
2018-04-28T18:02:43.792Z,45.09
2018-04-28T18:05:12.979Z,45.09
2018-04-28T18:07:42.816Z,45.01
2018-04-28T18:10:12.859Z,44.56
2018-04-28T18:12:43.005Z,45.06
2018-04-28T18:15:12.871Z,44.91
2018-04-28T18:17:42.944Z,44.95
2018-04-28T18:20:12.308Z,44.86
2018-04-28T18:22:41.447Z,44.84
2018-04-28T18:25:11.386Z,44.89
2018-04-28T18:27:40.497Z,45.03
2018-04-28T18:30:10.732Z,44.62
2018-04-28T18:32:40.024Z,45.23
2018-04-28T18:35:09.957Z,45.17
2018-04-28T18:37:39.096Z,44.87
2018-04-28T18:40:08.576Z,44.73
2018-04-28T18:42:38.101Z,44.54
2018-04-28T18:45:07.436Z,44.60
2018-04-28T18:47:41.370Z,44.61
2018-04-28T18:50:10.747Z,44.32
2018-04-28T18:52:40.359Z,44.25
2018-04-28T18:55:10.353Z,44.33
2018-04-28T18:57:40.092Z,44.23
2018-04-28T19:00:09.263Z,44.10
2018-04-28T19:02:39.180Z,44.04
2018-04-28T19:05:08.910Z,44.33
2018-04-28T19:07:38.102Z,44.33
2018-04-28T19:10:07.802Z,44.08
2018-04-28T19:12:35.306Z,43.65
2018-04-28T19:15:02.790Z,43.81
2018-04-28T19:17:32.053Z,43.77
2018-04-28T19:20:00.593Z,43.71
2018-04-28T19:22:30.298Z,43.87
2018-04-28T19:24:59.287Z,43.82
2018-04-28T19:27:29.587Z,43.75
2018-04-28T19:29:59.977Z,43.47
2018-04-28T19:32:34.038Z,43.72
2018-04-28T19:35:03.435Z,43.79
2018-04-28T19:37:32.931Z,43.71
2018-04-28T19:40:02.353Z,43.57
2018-04-28T19:42:32.519Z,43.43
2018-04-28T19:45:02.091Z,43.38
2018-04-28T19:47:31.884Z,43.31
2018-04-28T19:50:02.481Z,43.60
2018-04-28T19:52:30.174Z,43.53
2018-04-28T19:55:06.747Z,43.47
2018-04-28T19:57:38.114Z,43.90
2018-04-28T20:00:14.304Z,43.96
2018-04-28T20:02:43.991Z,43.99
2018-04-28T20:05:12.131Z,44.18
2018-04-28T20:07:42.925Z,44.06
2018-04-28T20:10:12.289Z,44.13
2018-04-28T20:12:41.863Z,44.53
2018-04-28T20:15:10.497Z,44.50
2018-04-28T20:17:41.012Z,44.07
2018-04-28T20:20:09.350Z,43.94
2018-04-28T20:22:49.437Z,44.35
2018-04-28T20:25:22.842Z,44.21
2018-04-28T20:27:51.697Z,44.29
2018-04-28T20:30:21.889Z,44.30
2018-04-28T20:32:49.391Z,44.33
2018-04-28T20:35:19.825Z,44.19
2018-04-28T20:37:49.903Z,44.40
2018-04-28T20:40:19.504Z,44.29
2018-04-28T20:42:48.848Z,44.30
2018-04-28T20:45:22.634Z,44.49
2018-04-28T20:47:50.164Z,44.77
2018-04-28T20:50:20.074Z,44.92
2018-04-28T20:52:49.216Z,45.15
2018-04-28T20:55:18.553Z,45.36
2018-04-28T20:57:56.077Z,45.33
2018-04-28T21:00:27.110Z,45.41
2018-04-28T21:02:56.647Z,45.02
2018-04-28T21:05:25.956Z,44.76
2018-04-28T21:07:55.508Z,45.12
2018-04-28T21:10:24.680Z,45.03
2018-04-28T21:12:52.242Z,45.10
2018-04-28T21:15:21.383Z,44.97
2018-04-28T21:17:51.174Z,45.16
2018-04-28T21:20:20.515Z,45.38
2018-04-28T21:22:50.157Z,45.45
2018-04-28T21:25:19.228Z,45.55
2018-04-28T21:27:48.322Z,45.63
2018-04-28T21:30:17.879Z,45.56
2018-04-28T21:32:47.356Z,45.85
2018-04-28T21:35:16.811Z,45.92
2018-04-28T21:37:46.386Z,46.68
2018-04-28T21:40:16.101Z,46.73
2018-04-28T21:42:45.218Z,46.46
2018-04-28T21:45:14.143Z,46.74
2018-04-28T21:47:44.599Z,46.90
2018-04-28T21:50:18.067Z,46.85
2018-04-28T21:52:47.388Z,46.78
2018-04-28T21:55:16.960Z,46.86
2018-04-28T21:57:46.362Z,46.10
2018-04-28T22:00:15.923Z,46.15
2018-04-28T22:02:45.153Z,46.14
2018-04-28T22:05:12.627Z,45.84
2018-04-28T22:07:42.548Z,45.82
2018-04-28T22:10:11.866Z,45.87
2018-04-28T22:12:41.271Z,45.97
2018-04-28T22:15:10.656Z,46.20
2018-04-28T22:17:40.228Z,46.89
2018-04-28T22:20:09.201Z,46.91
2018-04-28T22:22:42.944Z,47.12
2018-04-28T22:25:12.924Z,47.14
2018-04-28T22:27:45.780Z,47.25
2018-04-28T22:30:15.487Z,46.84
2018-04-28T22:32:44.925Z,46.55
2018-04-28T22:35:15.031Z,46.41
2018-04-28T22:37:44.066Z,46.74
2018-04-28T22:40:14.095Z,47.32
2018-04-28T22:42:44.093Z,47.01
2018-04-28T22:45:14.278Z,46.66
2018-04-28T22:47:43.831Z,46.87
2018-04-28T22:50:13.156Z,47.35
2018-04-28T22:52:42.505Z,46.75
2018-04-28T22:55:12.633Z,46.54
2018-04-28T22:57:41.847Z,46.37
2018-04-28T23:00:09.294Z,46.15
2018-04-28T23:02:38.148Z,46.25
2018-04-28T23:05:06.709Z,46.52
2018-04-28T23:07:34.617Z,46.44
2018-04-28T23:10:03.754Z,46.27
2018-04-28T23:12:32.434Z,46.40
2018-04-28T23:15:01.522Z,47.25
2018-04-28T23:17:29.782Z,47.99
2018-04-28T23:19:59.482Z,47.38
2018-04-28T23:22:27.634Z,47.40
2018-04-28T23:24:56.627Z,47.39
2018-04-28T23:27:25.852Z,47.68
2018-04-28T23:29:53.655Z,48.13
2018-04-28T23:32:22.637Z,48.26
2018-04-28T23:34:53.621Z,48.08
2018-04-28T23:37:21.473Z,47.53
2018-04-28T23:39:52.298Z,47.11
2018-04-28T23:42:21.446Z,47.18
2018-04-28T23:44:51.173Z,47.17
2018-04-28T23:47:20.919Z,47.30
2018-04-28T23:49:49.103Z,47.46
2018-04-28T23:52:19.053Z,47.75
2018-04-28T23:54:48.475Z,49.16
2018-04-28T23:57:18.968Z,49.14
2018-04-28T23:59:48.479Z,49.11
